TimeEDT,TemperatureF,Dew PointF,Humidity,Sea Level PressureIn,VisibilityMPH,Wind Direction,Wind SpeedMPH,Gust SpeedMPH,PrecipitationIn,Events,Conditions,WindDirDegrees,DateUTC
12:56 AM,54.0,46.0,75,29.92,10.0,North,8.1,-,N/A,,Clear,10,2013-09-25 04:56:00
1:56 AM,55.0,45.0,69,29.93,10.0,North,6.9,-,N/A,,Clear,360,2013-09-25 05:56:00
2:56 AM,53.1,45.0,74,29.92,10.0,North,6.9,-,N/A,,Clear,350,2013-09-25 06:56:00
3:56 AM,51.1,45.0,80,29.92,10.0,Calm,Calm,-,N/A,,Clear,0,2013-09-25 07:56:00
4:56 AM,50.0,44.1,80,29.91,10.0,Calm,Calm,-,N/A,,Clear,0,2013-09-25 08:56:00
5:56 AM,48.0,44.1,86,29.92,10.0,Calm,Calm,-,N/A,,Clear,0,2013-09-25 09:56:00
6:56 AM,48.0,45.0,89,29.93,10.0,NNW,4.6,-,N/A,,Partly Cloudy,340,2013-09-25 10:56:00
7:56 AM,55.0,51.1,86,29.93,10.0,Calm,Calm,-,N/A,,Partly Cloudy,0,2013-09-25 11:56:00
8:56 AM,60.1,48.9,67,29.94,10.0,NNW,9.2,-,N/A,,Partly Cloudy,340,2013-09-25 12:56:00
9:56 AM,64.0,48.0,56,29.94,10.0,NNW,5.8,-,N/A,,Partly Cloudy,340,2013-09-25 13:56:00
10:56 AM,66.0,46.0,48,29.94,10.0,NW,5.8,-,N/A,,Partly Cloudy,320,2013-09-25 14:56:00
11:56 AM,68.0,43.0,40,29.92,10.0,WNW,5.8,-,N/A,,Scattered Clouds,290,2013-09-25 15:56:00
12:56 PM,70.0,44.1,39,29.91,10.0,Variable,3.5,-,N/A,,Mostly Cloudy,0,2013-09-25 16:56:00
1:56 PM,71.1,44.1,38,29.89,10.0,NW,8.1,-,N/A,,Mostly Cloudy,320,2013-09-25 17:56:00
2:56 PM,70.0,42.1,36,29.88,10.0,NNW,5.8,-,N/A,,Mostly Cloudy,330,2013-09-25 18:56:00
3:56 PM,71.1,46.0,41,29.87,10.0,Variable,4.6,-,N/A,,Mostly Cloudy,0,2013-09-25 19:56:00
4:56 PM,69.1,48.9,49,29.87,10.0,SW,8.1,-,N/A,,Mostly Cloudy,230,2013-09-25 20:56:00
5:56 PM,66.0,48.9,54,29.88,10.0,SW,5.8,-,N/A,,Mostly Cloudy,230,2013-09-25 21:56:00
6:56 PM,63.0,48.9,60,29.88,10.0,SW,3.5,-,N/A,,Mostly Cloudy,220,2013-09-25 22:56:00
7:56 PM,61.0,50.0,67,29.89,10.0,Calm,Calm,-,N/A,,Scattered Clouds,0,2013-09-25 23:56:00
8:56 PM,57.9,50.0,75,29.90,10.0,Calm,Calm,-,N/A,,Scattered Clouds,0,2013-09-26 00:56:00
9:56 PM,57.9,50.0,75,29.92,10.0,Calm,Calm,-,N/A,,Scattered Clouds,0,2013-09-26 01:56:00
10:56 PM,55.9,50.0,80,29.92,10.0,Calm,Calm,-,N/A,,Partly Cloudy,0,2013-09-26 02:56:00
11:56 PM,55.0,50.0,83,29.93,10.0,Calm,Calm,-,N/A,,Partly Cloudy,0,2013-09-26 03:56:00